Time;durP1;ratioP1;P1;durP2;ratioP2;P2;SDS_P1;SDS_P2;PMS_P1;PMS_P2;Temp;Humidity;BMP_temperature;BMP_pressure;BME280_temperature;BME280_humidity;BME280_pressure;Samples;Min_cycle;Max_cycle;Signal;HPM_P1;HPM_P2
2023/09/20 00:01:03;;;;;;;0.00;0.00;;;;;;;15.16;100.00;99211.44;5054917;28;20146;-74
2023/09/20 00:03:30;;;;;;;0.00;0.00;;;;;;;15.15;100.00;99198.00;5034402;28;20403;-75
2023/09/20 00:05:57;;;;;;;0.00;0.00;;;;;;;15.12;100.00;99188.47;5015539;28;20390;-76
2023/09/20 00:08:25;;;;;;;0.00;0.00;;;;;;;15.07;100.00;99185.88;5059656;28;20049;-75
2023/09/20 00:10:51;;;;;;;0.00;0.00;;;;;;;15.08;100.00;99178.44;5042970;28;20146;-75
2023/09/20 00:13:19;;;;;;;0.00;0.00;;;;;;;14.96;100.00;99187.34;5035322;28;20678;-74
2023/09/20 00:15:45;;;;;;;0.00;0.00;;;;;;;14.96;100.00;99173.59;5058942;28;20029;-74
2023/09/20 00:18:11;;;;;;;0.00;0.00;;;;;;;14.98;100.00;99180.41;5042104;28;20065;-74
2023/09/20 00:20:37;;;;;;;0.00;0.00;;;;;;;15.01;100.00;99192.72;5020650;28;20555;-75
2023/09/20 00:23:03;;;;;;;0.00;0.00;;;;;;;14.97;100.00;99183.47;5039177;28;20078;-74
2023/09/20 00:25:29;;;;;;;0.00;0.00;;;;;;;14.98;100.00;99176.81;5021307;28;20018;-75
2023/09/20 00:27:54;;;;;;;0.00;0.00;;;;;;;14.95;100.00;99167.28;5033779;28;21434;-75
2023/09/20 00:30:20;;;;;;;0.00;0.00;;;;;;;14.93;100.00;99174.25;5014186;28;20079;-75
2023/09/20 00:32:50;;;;;;;0.00;0.00;;;;;;;14.88;100.00;99169.72;5039202;28;20446;-75
2023/09/20 00:35:17;;;;;;;0.00;0.00;;;;;;;14.82;100.00;99152.56;5039460;28;20070;-75
2023/09/20 00:37:45;;;;;;;0.00;0.00;;;;;;;14.82;100.00;99185.59;5054002;28;20390;-75
2023/09/20 00:40:15;;;;;;;0.00;0.00;;;;;;;14.78;100.00;99168.09;5024868;28;20024;-75
2023/09/20 00:42:46;;;;;;;0.00;0.00;;;;;;;14.74;100.00;99164.38;5025362;28;20033;-76
2023/09/20 00:45:15;;;;;;;0.00;0.00;;;;;;;14.75;100.00;99163.25;5026216;28;20104;-75
2023/09/20 00:47:47;;;;;;;0.00;0.00;;;;;;;14.73;100.00;99171.00;5013605;28;20033;-75
2023/09/20 00:50:14;;;;;;;0.00;0.00;;;;;;;14.78;100.00;99151.59;5035235;28;20028;-75
2023/09/20 00:52:41;;;;;;;0.00;0.00;;;;;;;14.94;100.00;99153.84;5009364;28;20077;-75
2023/09/20 00:55:11;;;;;;;0.00;0.00;;;;;;;15.03;100.00;99146.38;5053163;28;20032;-76
2023/09/20 00:57:37;;;;;;;0.00;0.00;;;;;;;15.22;100.00;99148.75;5027104;28;20024;-75
2023/09/20 01:00:06;;;;;;;0.00;0.00;;;;;;;15.32;100.00;99142.91;5027641;28;20413;-74
2023/09/20 01:02:31;;;;;;;0.00;0.00;;;;;;;15.34;100.00;99128.78;5012735;28;20059;-74
2023/09/20 01:04:58;;;;;;;0.00;0.00;;;;;;;15.43;100.00;99148.84;5028766;28;20077;-74
2023/09/20 01:07:25;;;;;;;0.00;0.00;;;;;;;15.35;100.00;99111.13;5012039;28;20142;-74
2023/09/20 01:09:50;;;;;;;0.00;0.00;;;;;;;15.48;100.00;99132.16;5032839;28;20029;-75
2023/09/20 01:12:17;;;;;;;0.00;0.00;;;;;;;15.44;100.00;99133.16;5040306;28;20028;-75
2023/09/20 01:14:43;;;;;;;0.00;0.00;;;;;;;15.51;100.00;99111.41;5044517;28;20091;-77
2023/09/20 01:17:09;;;;;;;0.00;0.00;;;;;;;15.54;100.00;99132.78;5043875;28;21380;-75
2023/09/20 01:19:35;;;;;;;0.00;0.00;;;;;;;15.57;100.00;99142.34;5041372;28;20046;-76
2023/09/20 01:22:00;;;;;;;0.00;0.00;;;;;;;15.54;100.00;99117.03;5048000;28;20039;-76
2023/09/20 01:24:28;;;;;;;0.00;0.00;;;;;;;15.56;100.00;99102.13;5049213;28;20021;-76
2023/09/20 01:26:58;;;;;;;0.00;0.00;;;;;;;15.61;100.00;99118.47;5039186;28;20034;-76
2023/09/20 01:29:24;;;;;;;0.00;0.00;;;;;;;15.61;100.00;99122.06;5037550;28;20055;-77
2023/09/20 01:31:49;;;;;;;0.00;0.00;;;;;;;15.56;100.00;99119.47;5028349;28;20021;-77
2023/09/20 01:34:15;;;;;;;0.00;0.00;;;;;;;15.58;100.00;99102.59;5033204;28;20078;-76
2023/09/20 01:36:40;;;;;;;0.00;0.00;;;;;;;15.53;100.00;99098.09;5060641;28;20115;-75
2023/09/20 01:39:09;;;;;;;0.00;0.00;;;;;;;15.57;100.00;99109.28;5062347;28;20409;-76
2023/09/20 01:41:34;;;;;;;0.00;0.00;;;;;;;15.61;100.00;99093.66;5043113;28;20017;-75
2023/09/20 01:44:00;;;;;;;0.00;0.00;;;;;;;15.61;100.00;99099.19;5064124;28;20385;-77
2023/09/20 01:46:25;;;;;;;0.00;0.00;;;;;;;15.64;100.00;99106.81;5018493;28;20093;-77
2023/09/20 01:48:58;;;;;;;0.00;0.00;;;;;;;15.57;100.00;99098.25;5054473;28;20028;-78
2023/09/20 01:51:24;;;;;;;0.00;0.00;;;;;;;15.49;100.00;99086.94;5038552;28;20031;-75
2023/09/20 01:53:49;;;;;;;0.00;0.00;;;;;;;15.56;100.00;99102.13;5027150;28;20033;-75
2023/09/20 01:56:14;;;;;;;0.00;0.00;;;;;;;15.53;100.00;99098.88;5052201;28;20430;-74
2023/09/20 01:58:43;;;;;;;0.00;0.00;;;;;;;15.54;100.00;99089.50;5044430;28;20135;-74
2023/09/20 02:01:10;;;;;;;0.00;0.00;;;;;;;15.45;100.00;99088.72;5034236;28;20087;-74
2023/09/20 02:03:40;;;;;;;0.00;0.00;;;;;;;15.39;100.00;99081.81;4987014;28;21446;-76
2023/09/20 02:06:06;;;;;;;0.00;0.00;;;;;;;15.33;100.00;99094.13;5045647;28;20032;-76
2023/09/20 02:08:32;;;;;;;0.00;0.00;;;;;;;15.19;100.00;99075.88;5040173;28;20021;-74
2023/09/20 02:10:57;;;;;;;0.00;0.00;;;;;;;15.05;100.00;99064.25;5044456;28;20025;-76
2023/09/20 02:13:23;;;;;;;0.00;0.00;;;;;;;15.10;100.00;99094.38;5053244;28;20074;-75
2023/09/20 02:15:48;;;;;;;0.00;0.00;;;;;;;15.09;100.00;99092.75;5023479;28;20040;-75
2023/09/20 02:18:13;;;;;;;0.00;0.00;;;;;;;15.06;100.00;99024.59;5019165;28;20046;-75
2023/09/20 02:20:39;;;;;;;0.00;0.00;;;;;;;15.24;100.00;99057.56;5042619;28;20470;-74
2023/09/20 02:23:06;;;;;;;0.00;0.00;;;;;;;15.41;100.00;99046.47;5027433;28;20044;-75
2023/09/20 02:25:32;;;;;;;0.00;0.00;;;;;;;15.39;100.00;99040.50;5037741;28;20430;-73
2023/09/20 02:27:58;;;;;;;0.00;0.00;;;;;;;15.43;100.00;99049.69;5027861;28;20071;-75
2023/09/20 02:30:28;;;;;;;0.00;0.00;;;;;;;15.38;100.00;99019.59;5020445;28;20017;-75
2023/09/20 02:32:57;;;;;;;0.00;0.00;;;;;;;15.39;100.00;99043.25;5008660;28;20120;-75
2023/09/20 02:35:32;;;;;;;0.00;0.00;;;;;;;15.41;100.00;99029.94;5057216;28;20021;-74
2023/09/20 02:38:05;;;;;;;0.00;0.00;;;;;;;15.43;100.00;99024.09;5018009;28;20022;-73
2023/09/20 02:40:31;;;;;;;0.00;0.00;;;;;;;15.51;100.00;99051.59;5054469;28;20025;-75
2023/09/20 02:43:00;;;;;;;0.00;0.00;;;;;;;15.52;100.00;99022.91;5009687;28;20020;-75
2023/09/20 02:45:29;;;;;;;0.00;0.00;;;;;;;15.56;100.00;99008.47;5018764;28;20029;-75
2023/09/20 02:47:55;;;;;;;0.00;0.00;;;;;;;15.56;100.00;99019.47;5030709;28;20091;-75
2023/09/20 02:50:23;;;;;;;0.00;0.00;;;;;;;15.59;100.00;98996.78;5036841;28;20467;-74
2023/09/20 02:52:50;;;;;;;0.00;0.00;;;;;;;15.60;100.00;98987.38;5007271;28;20060;-75
2023/09/20 02:55:19;;;;;;;0.00;0.00;;;;;;;15.56;100.00;98994.69;5022332;28;20039;-75
2023/09/20 02:57:45;;;;;;;0.00;0.00;;;;;;;15.57;100.00;98988.03;5022028;28;20029;-75
2023/09/20 03:00:17;;;;;;;0.00;0.00;;;;;;;15.62;100.00;98987.84;5050709;28;20064;-75
2023/09/20 03:02:44;;;;;;;0.00;0.00;;;;;;;15.50;100.00;98945.28;5028824;28;20025;-75
2023/09/20 03:05:11;;;;;;;0.00;0.00;;;;;;;15.67;99.85;98999.47;5038014;28;20029;-76
2023/09/20 03:07:37;;;;;;;0.00;0.00;;;;;;;15.61;99.93;98950.38;5037007;28;20558;-76
2023/09/20 03:10:05;;;;;;;0.00;0.00;;;;;;;15.59;99.88;98997.56;5008964;28;20060;-75
2023/09/20 03:12:32;;;;;;;0.00;0.00;;;;;;;15.63;100.00;98953.63;5052880;28;20044;-75
2023/09/20 03:15:00;;;;;;;0.00;0.00;;;;;;;15.62;100.00;98952.81;5057561;28;20056;-75
2023/09/20 03:17:25;;;;;;;0.00;0.00;;;;;;;15.63;100.00;98951.69;5048665;28;20036;-76
2023/09/20 03:19:53;;;;;;;0.00;0.00;;;;;;;15.63;99.79;98937.91;5028884;28;20668;-75
2023/09/20 03:22:19;;;;;;;0.00;0.00;;;;;;;15.66;100.00;98942.75;5037437;28;20037;-75
2023/09/20 03:24:47;;;;;;;0.00;0.00;;;;;;;15.63;99.46;98970.16;5056091;28;20048;-75
2023/09/20 03:27:15;;;;;;;0.00;0.00;;;;;;;15.72;98.55;98940.59;5034045;28;20032;-75
2023/09/20 03:29:42;;;;;;;0.00;0.00;;;;;;;15.65;98.79;98956.84;5024244;28;20029;-75
2023/09/20 03:32:08;;;;;;;0.00;0.00;;;;;;;15.70;99.09;98920.84;5052268;28;20044;-75
2023/09/20 03:34:33;;;;;;;0.00;0.00;;;;;;;15.66;99.35;98937.22;5042596;28;20052;-74
2023/09/20 03:36:59;;;;;;;0.00;0.00;;;;;;;15.63;99.47;98915.84;5040640;28;20051;-75
2023/09/20 03:39:24;;;;;;;0.00;0.00;;;;;;;15.60;99.39;98915.75;5033124;28;20017;-75
2023/09/20 03:41:51;;;;;;;0.00;0.00;;;;;;;15.64;99.70;98906.47;5022115;28;20056;-75
2023/09/20 03:44:18;;;;;;;0.00;0.00;;;;;;;15.63;99.86;98926.09;5022029;28;20371;-76
2023/09/20 03:46:44;;;;;;;0.00;0.00;;;;;;;15.58;100.00;98915.25;5043408;28;20455;-74
2023/09/20 03:49:10;;;;;;;0.00;0.00;;;;;;;15.60;100.00;98915.75;5028073;28;20029;-74
2023/09/20 03:51:39;;;;;;;0.00;0.00;;;;;;;15.51;100.00;98863.47;5005705;28;20033;-75
2023/09/20 03:54:05;;;;;;;0.00;0.00;;;;;;;15.63;100.00;98901.28;5038662;28;20082;-75
2023/09/20 03:56:30;;;;;;;0.00;0.00;;;;;;;15.63;100.00;98893.03;5039126;28;20028;-75
2023/09/20 03:58:55;;;;;;;0.00;0.00;;;;;;;15.61;100.00;98901.63;5032055;28;20029;-76
2023/09/20 04:01:22;;;;;;;0.00;0.00;;;;;;;15.49;100.00;98872.06;5017847;28;20542;-75
2023/09/20 04:03:47;;;;;;;0.00;0.00;;;;;;;15.53;100.00;98867.47;5032886;28;20045;-75
2023/09/20 04:06:13;;;;;;;0.00;0.00;;;;;;;15.60;99.93;98882.69;5026854;28;20036;-75
2023/09/20 04:08:38;;;;;;;0.00;0.00;;;;;;;15.65;99.07;98865.91;5054357;28;20029;-76
2023/09/20 04:11:05;;;;;;;0.00;0.00;;;;;;;15.65;98.45;98887.97;5046035;28;20424;-74
2023/09/20 04:13:34;;;;;;;0.00;0.00;;;;;;;15.69;98.49;98875.13;5050202;28;20020;-75
2023/09/20 04:16:03;;;;;;;0.00;0.00;;;;;;;15.68;98.73;98874.34;5023932;28;20057;-74
2023/09/20 04:18:28;;;;;;;0.00;0.00;;;;;;;15.68;98.21;98849.53;5043261;28;20056;-75
2023/09/20 04:20:54;;;;;;;0.00;0.00;;;;;;;15.71;98.12;98872.84;5010849;28;20024;-74
2023/09/20 04:23:19;;;;;;;0.00;0.00;;;;;;;15.69;98.59;98880.63;5059117;28;20094;-75
2023/09/20 04:25:44;;;;;;;0.00;0.00;;;;;;;15.69;99.08;98855.84;5035160;28;20071;-75
2023/09/20 04:28:10;;;;;;;0.00;0.00;;;;;;;15.71;98.67;98857.13;5012453;28;20502;-75
2023/09/20 04:30:38;;;;;;;0.00;0.00;;;;;;;15.69;98.51;98817.25;5041219;28;20025;-74
2023/09/20 04:33:05;;;;;;;0.00;0.00;;;;;;;15.76;97.71;98813.97;5040393;28;20031;-76
2023/09/20 04:35:31;;;;;;;0.00;0.00;;;;;;;15.75;96.40;98823.38;5033113;28;20117;-76
2023/09/20 04:37:57;;;;;;;0.00;0.00;;;;;;;15.74;96.73;98791.44;5023488;28;20045;-75
2023/09/20 04:40:23;;;;;;;0.00;0.00;;;;;;;15.67;96.67;98783.75;5062597;28;20115;-77
2023/09/20 04:42:48;;;;;;;0.00;0.00;;;;;;;15.69;96.69;98797.97;5044719;28;20075;-76
2023/09/20 04:45:14;;;;;;;0.00;0.00;;;;;;;15.73;95.61;98807.19;5024653;28;20033;-75
2023/09/20 04:47:40;;;;;;;0.00;0.00;;;;;;;15.74;95.62;98783.19;4994043;28;20074;-75
2023/09/20 04:50:07;;;;;;;0.00;0.00;;;;;;;15.76;94.31;98770.66;5049171;28;20028;-75
2023/09/20 04:52:33;;;;;;;0.00;0.00;;;;;;;15.79;93.42;98794.81;5017881;28;20026;-76
2023/09/20 04:54:58;;;;;;;0.00;0.00;;;;;;;15.78;93.38;98765.63;5037353;28;20518;-74
2023/09/20 04:57:26;;;;;;;0.00;0.00;;;;;;;15.70;93.61;98800.38;5029468;28;20037;-74
2023/09/20 04:59:52;;;;;;;0.00;0.00;;;;;;;15.63;93.65;98791.06;5038841;28;20044;-75
2023/09/20 05:02:17;;;;;;;0.00;0.00;;;;;;;15.63;94.13;98767.06;5022683;28;20022;-76
2023/09/20 05:04:43;;;;;;;0.00;0.00;;;;;;;15.69;94.36;98784.19;5033702;28;20033;-75
2023/09/20 05:07:09;;;;;;;0.00;0.00;;;;;;;15.72;95.13;98786.28;5032457;28;20033;-75
2023/09/20 05:09:36;;;;;;;0.00;0.00;;;;;;;15.75;94.94;98774.56;5011645;28;20033;-75
2023/09/20 05:12:02;;;;;;;0.00;0.00;;;;;;;15.73;94.63;98765.84;5018965;28;20028;-75
2023/09/20 05:14:28;;;;;;;0.00;0.00;;;;;;;15.78;94.85;98773.91;5052876;28;20037;-73
2023/09/20 05:16:54;;;;;;;0.00;0.00;;;;;;;15.79;94.57;98829.84;5035675;28;20048;-74
2023/09/20 05:19:19;;;;;;;0.00;0.00;;;;;;;15.85;94.79;98779.66;5042308;28;20051;-74
2023/09/20 05:21:45;;;;;;;0.00;0.00;;;;;;;15.72;94.62;98802.81;5020956;28;20085;-73
2023/09/20 05:24:10;;;;;;;0.00;0.00;;;;;;;15.86;94.70;98780.50;5038385;28;20028;-73
2023/09/20 05:26:39;;;;;;;0.00;0.00;;;;;;;15.88;94.38;98823.09;5054605;28;20119;-74
2023/09/20 05:29:25;;;;;;;0.00;0.00;;;;;;;15.79;94.44;98770.00;5023326;28;20151;-75
2023/09/20 05:31:51;;;;;;;0.00;0.00;;;;;;;15.93;94.13;98786.25;5058819;28;20498;-75
2023/09/20 05:34:17;;;;;;;0.00;0.00;;;;;;;15.94;94.09;98811.84;5019387;28;20029;-74
2023/09/20 05:36:43;;;;;;;0.00;0.00;;;;;;;15.93;94.27;98782.66;5023566;28;20472;-74
2023/09/20 05:39:12;;;;;;;0.00;0.00;;;;;;;15.96;94.46;98820.56;5006145;28;20033;-75
2023/09/20 05:41:43;;;;;;;0.00;0.00;;;;;;;15.86;93.98;98786.78;5042082;28;20032;-76
2023/09/20 05:44:10;;;;;;;0.00;0.00;;;;;;;15.93;93.61;98796.44;5031577;28;20558;-75
2023/09/20 05:46:38;;;;;;;0.00;0.00;;;;;;;15.87;93.78;98787.59;5050543;28;20485;-74
2023/09/20 05:49:06;;;;;;;0.00;0.00;;;;;;;15.94;92.93;98800.81;5019986;28;20483;-74
2023/09/20 05:51:37;;;;;;;0.00;0.00;;;;;;;15.87;92.82;98766.38;5020686;28;20025;-77
2023/09/20 05:54:04;;;;;;;0.00;0.00;;;;;;;15.94;92.85;98770.50;5036608;28;20026;-74
2023/09/20 05:56:29;;;;;;;0.00;0.00;;;;;;;15.95;92.30;98821.75;5046371;28;20033;-73
2023/09/20 05:58:55;;;;;;;0.00;0.00;;;;;;;16.10;92.24;98779.72;5036222;28;20033;-73
2023/09/20 06:01:23;;;;;;;0.00;0.00;;;;;;;16.09;92.73;98805.69;5006139;28;20044;-75
2023/09/20 06:03:49;;;;;;;0.00;0.00;;;;;;;15.99;92.85;98778.53;5033110;28;20029;-75
2023/09/20 06:06:14;;;;;;;0.00;0.00;;;;;;;16.09;92.34;98783.63;5024296;28;20025;-75
2023/09/20 06:08:47;;;;;;;0.00;0.00;;;;;;;16.07;91.86;98796.94;5015006;28;20038;-76
2023/09/20 06:11:17;;;;;;;0.00;0.00;;;;;;;16.09;91.56;98778.13;5008636;28;20032;-76
2023/09/20 06:13:43;;;;;;;0.00;0.00;;;;;;;16.14;91.68;98786.16;5032173;28;20035;-75
2023/09/20 06:16:09;;;;;;;0.00;0.00;;;;;;;16.13;91.52;98784.53;5017595;28;20386;-74
2023/09/20 06:18:35;;;;;;;0.00;0.00;;;;;;;16.10;90.96;98768.69;5033500;28;20104;-74
2023/09/20 06:21:00;;;;;;;0.00;0.00;;;;;;;16.22;90.63;98815.59;5049822;28;20060;-73
2023/09/20 06:23:27;;;;;;;0.00;0.00;;;;;;;16.21;91.03;98794.66;5039529;28;20057;-75
2023/09/20 06:25:53;;;;;;;0.00;0.00;;;;;;;16.25;90.17;98777.44;5051239;28;20118;-75
2023/09/20 06:28:19;;;;;;;0.00;0.00;;;;;;;16.27;90.36;98761.34;5053345;28;20056;-75
2023/09/20 06:30:47;;;;;;;0.00;0.00;;;;;;;16.36;89.73;98759.28;5034878;28;20451;-75
2023/09/20 06:33:13;;;;;;;0.00;0.00;;;;;;;16.46;89.09;98789.16;5035058;28;20029;-75
2023/09/20 06:35:40;;;;;;;0.00;0.00;;;;;;;16.43;88.71;98781.56;5024016;28;20020;-73
2023/09/20 06:38:07;;;;;;;0.00;0.00;;;;;;;16.50;89.35;98773.53;5028939;28;20040;-75
2023/09/20 06:40:38;;;;;;;0.00;0.00;;;;;;;16.57;88.80;98768.22;5022090;28;20035;-73
2023/09/20 06:43:06;;;;;;;0.00;0.00;;;;;;;16.59;88.73;98770.66;5019861;28;20470;-74
2023/09/20 06:45:47;;;;;;;0.00;0.00;;;;;;;16.61;89.31;98792.38;5025669;28;20027;-75
2023/09/20 06:48:15;;;;;;;0.00;0.00;;;;;;;16.66;88.05;98759.00;5038192;28;20021;-75
2023/09/20 06:50:43;;;;;;;0.00;0.00;;;;;;;16.52;88.69;98768.44;5056451;28;20043;-74
2023/09/20 06:53:10;;;;;;;0.00;0.00;;;;;;;16.48;88.60;98767.53;5029341;28;20075;-76
2023/09/20 06:55:44;;;;;;;0.00;0.00;;;;;;;16.46;89.29;98761.56;5042339;28;20028;-76
2023/09/20 06:58:10;;;;;;;0.00;0.00;;;;;;;16.55;89.04;98809.16;5019839;28;20036;-76
2023/09/20 07:00:35;;;;;;;0.00;0.00;;;;;;;16.46;90.13;98840.78;5020600;28;20432;-75
2023/09/20 07:03:02;;;;;;;0.00;0.00;;;;;;;16.35;90.31;98763.16;5047397;28;20083;-77
2023/09/20 07:05:30;;;;;;;0.00;0.00;;;;;;;16.42;90.33;98793.75;5039437;28;20025;-76
2023/09/20 07:08:01;;;;;;;0.00;0.00;;;;;;;16.26;91.84;98771.56;5021705;28;20036;-76
2023/09/20 07:10:33;;;;;;;0.00;0.00;;;;;;;16.04;92.66;98754.31;5035930;28;20033;-75
2023/09/20 07:12:58;;;;;;;0.00;0.00;;;;;;;16.09;92.44;98767.09;5026978;28;20031;-75
2023/09/20 07:15:39;;;;;;;0.00;0.00;;;;;;;16.08;92.02;98759.97;5003629;28;21442;-75
2023/09/20 07:18:11;;;;;;;0.00;0.00;;;;;;;16.09;91.59;98769.84;5023905;28;20048;-74
2023/09/20 07:20:39;;;;;;;0.00;0.00;;;;;;;16.20;91.32;98743.41;5012446;28;20108;-75
2023/09/20 07:23:08;;;;;;;0.00;0.00;;;;;;;16.15;92.66;98753.84;5043280;28;20112;-76
2023/09/20 07:25:37;;;;;;;0.00;0.00;;;;;;;16.17;92.04;98741.34;5027511;28;20067;-74
2023/09/20 07:28:04;;;;;;;0.00;0.00;;;;;;;16.26;92.17;98754.22;5044322;28;20029;-74
2023/09/20 07:30:34;;;;;;;0.00;0.00;;;;;;;16.14;92.63;98742.03;5011956;28;20053;-75
2023/09/20 07:33:03;;;;;;;0.00;0.00;;;;;;;16.17;92.83;98773.63;5024753;28;20617;-75
2023/09/20 07:35:38;;;;;;;0.00;0.00;;;;;;;16.11;93.59;98770.28;5015150;28;20036;-74
2023/09/20 07:38:29;;;;;;;0.00;0.00;;;;;;;15.98;93.85;98754.91;5032460;28;20040;-74
2023/09/20 07:41:18;;;;;;;0.00;0.00;;;;;;;15.79;96.06;98734.19;5032130;28;20033;-75
2023/09/20 07:43:44;;;;;;;0.00;0.00;;;;;;;15.80;96.09;98729.47;5035566;28;20130;-75
2023/09/20 07:46:13;;;;;;;0.00;0.00;;;;;;;15.91;95.98;98738.13;5008425;28;20525;-74
2023/09/20 07:48:46;;;;;;;0.00;0.00;;;;;;;16.04;94.56;98725.94;5021658;28;20441;-75
2023/09/20 07:51:14;;;;;;;0.00;0.00;;;;;;;16.21;93.34;98708.38;5035689;28;20032;-74
2023/09/20 07:53:40;;;;;;;0.00;0.00;;;;;;;16.31;92.68;98734.66;5026843;28;20103;-75
2023/09/20 07:56:06;;;;;;;0.00;0.00;;;;;;;16.25;92.23;98708.47;5018145;28;20037;-75
2023/09/20 07:58:36;;;;;;;0.00;0.00;;;;;;;16.32;91.64;98722.50;5019706;28;20029;-74
2023/09/20 08:01:10;;;;;;;0.00;0.00;;;;;;;16.28;92.16;98727.09;5016872;28;20056;-75
2023/09/20 08:03:36;;;;;;;0.00;0.00;;;;;;;16.13;93.08;98718.34;5034822;28;20025;-75
2023/09/20 08:06:08;;;;;;;0.00;0.00;;;;;;;16.02;94.66;98695.97;5027882;28;20041;-74
2023/09/20 08:08:37;;;;;;;0.00;0.00;;;;;;;15.67;99.38;98739.66;5012794;28;20013;-75
2023/09/20 08:11:02;;;;;;;0.00;0.00;;;;;;;15.32;100.00;98712.47;5010614;28;20036;-75
2023/09/20 08:13:28;;;;;;;0.00;0.00;;;;;;;15.03;100.00;98705.94;5035264;28;20029;-76
2023/09/20 08:15:53;;;;;;;0.00;0.00;;;;;;;14.95;100.00;98720.56;5023405;28;20026;-75
2023/09/20 08:21:04;;;;;;;0.00;0.00;;;;;;;14.75;100.00;98723.00;5043709;28;20065;-75
2023/09/20 09:02:16;;;;;;;0.00;0.00;;;;;;;15.05;100.00;98678.88;5042776;28;20094;-76
2023/09/20 09:04:49;;;;;;;0.00;0.00;;;;;;;15.05;100.00;98676.13;5034612;28;20112;-75
2023/09/20 09:07:16;;;;;;;0.00;0.00;;;;;;;15.14;100.00;98657.59;5030836;28;20025;-75
2023/09/20 09:09:41;;;;;;;0.00;0.00;;;;;;;15.41;100.00;98663.63;5026879;28;20121;-75
2023/09/20 09:12:08;;;;;;;0.00;0.00;;;;;;;15.52;100.00;98659.28;5018381;28;20157;-75
2023/09/20 09:14:38;;;;;;;0.00;0.00;;;;;;;15.47;100.00;98700.81;5042175;28;20467;-75
2023/09/20 09:17:07;;;;;;;0.00;0.00;;;;;;;15.42;100.00;98661.66;5043903;28;20037;-74
2023/09/20 09:19:33;;;;;;;0.00;0.00;;;;;;;15.58;100.00;98659.03;5026146;28;20065;-75
2023/09/20 09:22:00;;;;;;;0.00;0.00;;;;;;;15.81;100.00;98670.47;5028320;28;20340;-75
2023/09/20 09:24:27;;;;;;;0.00;0.00;;;;;;;15.85;100.00;98674.94;5028385;28;20333;-76
2023/09/20 09:27:08;;;;;;;0.00;0.00;;;;;;;15.73;100.00;98682.38;5061645;28;20057;-75
2023/09/20 09:29:34;;;;;;;0.00;0.00;;;;;;;15.62;100.00;98654.47;5011160;28;20109;-76
2023/09/20 09:32:04;;;;;;;0.00;0.00;;;;;;;15.61;100.00;98680.38;5032384;28;20120;-76
2023/09/20 09:34:30;;;;;;;0.00;0.00;;;;;;;15.53;100.00;98663.63;5029351;28;20831;-75
2023/09/20 09:36:56;;;;;;;0.00;0.00;;;;;;;15.52;100.00;98669.47;5053767;28;20029;-75
2023/09/20 09:39:22;;;;;;;0.00;0.00;;;;;;;15.48;100.00;98647.31;5024435;28;20053;-75
2023/09/20 09:41:47;;;;;;;0.00;0.00;;;;;;;15.45;100.00;98667.28;5024058;28;20063;-75
2023/09/20 09:44:16;;;;;;;0.00;0.00;;;;;;;15.49;100.00;98648.94;5027808;28;20363;-75
2023/09/20 09:46:43;;;;;;;0.00;0.00;;;;;;;15.42;100.00;98667.16;5053343;28;20029;-76
2023/09/20 09:49:16;;;;;;;0.00;0.00;;;;;;;15.41;100.00;98627.81;5047910;28;20017;-75
2023/09/20 09:51:45;;;;;;;0.00;0.00;;;;;;;15.43;100.00;98624.72;5027899;28;20033;-75
2023/09/20 09:54:12;;;;;;;0.00;0.00;;;;;;;15.33;100.00;98614.94;5052899;28;20490;-77
2023/09/20 09:56:38;;;;;;;0.00;0.00;;;;;;;15.25;100.00;98607.59;5036546;28;20427;-76
2023/09/20 09:59:05;;;;;;;0.00;0.00;;;;;;;15.26;100.00;98609.19;4988079;28;21399;-76
2023/09/20 10:01:50;;;;;;;0.00;0.00;;;;;;;15.35;100.00;98645.69;4997076;28;20039;-77
2023/09/20 10:04:19;;;;;;;0.00;0.00;;;;;;;15.30;100.00;98604.59;5018864;28;20021;-76
2023/09/20 10:06:44;;;;;;;0.00;0.00;;;;;;;15.45;100.00;98614.97;5029588;28;20399;-77
2023/09/20 10:09:12;;;;;;;0.00;0.00;;;;;;;15.57;100.00;98610.63;5047553;28;20017;-77
2023/09/20 10:11:46;;;;;;;0.00;0.00;;;;;;;15.55;100.00;98583.41;5027603;28;20041;-77
2023/09/20 10:14:21;;;;;;;0.00;0.00;;;;;;;15.71;100.00;98613.81;5003539;28;20034;-77
2023/09/20 10:16:50;;;;;;;0.00;0.00;;;;;;;15.69;100.00;98610.59;5046901;28;20041;-75
2023/09/20 10:19:18;;;;;;;0.00;0.00;;;;;;;15.67;100.00;98615.66;5011564;28;20400;-77
2023/09/20 10:22:21;;;;;;;0.00;0.00;;;;;;;15.52;100.00;98639.16;5040499;28;20029;-77
2023/09/20 10:24:53;;;;;;;0.00;0.00;;;;;;;15.40;100.00;98598.66;4952276;28;20483;-76
2023/09/20 10:27:42;;;;;;;0.00;0.00;;;;;;;15.38;100.00;98600.94;5018003;28;20494;-77
2023/09/20 10:30:14;;;;;;;0.00;0.00;;;;;;;15.32;100.00;98596.81;5047382;28;20453;-76
2023/09/20 10:32:47;;;;;;;0.00;0.00;;;;;;;15.47;100.00;98598.88;5036069;28;20036;-76
2023/09/20 10:35:33;;;;;;;0.00;0.00;;;;;;;15.46;100.00;98602.81;5044762;28;20482;-78
2023/09/20 10:38:04;;;;;;;0.00;0.00;;;;;;;15.41;100.00;98589.25;5009174;28;20479;-77
2023/09/20 10:40:45;;;;;;;0.00;0.00;;;;;;;15.37;100.00;98588.31;5042900;28;20075;-78
2023/09/20 10:43:12;;;;;;;0.00;0.00;;;;;;;15.17;100.00;98566.06;5017513;28;20057;-78
2023/09/20 10:45:40;;;;;;;0.00;0.00;;;;;;;15.19;100.00;98563.75;5018264;28;20024;-77
2023/09/20 10:48:30;;;;;;;0.00;0.00;;;;;;;15.23;100.00;98565.81;5017245;28;20113;-77
2023/09/20 10:50:59;;;;;;;0.00;0.00;;;;;;;15.21;100.00;98581.88;5025279;28;20034;-78
2023/09/20 10:53:47;;;;;;;0.00;0.00;;;;;;;15.18;100.00;98558.59;5032187;28;20031;-75
2023/09/20 10:56:54;;;;;;;0.00;0.00;;;;;;;15.39;100.00;98594.31;5012449;28;20399;-76
2023/09/20 10:59:25;;;;;;;0.00;0.00;;;;;;;15.31;100.00;98579.47;5036443;28;20039;-76
2023/09/20 11:01:58;;;;;;;0.00;0.00;;;;;;;15.38;100.00;98578.13;5051555;28;20028;-78
2023/09/20 11:04:26;;;;;;;0.00;0.00;;;;;;;15.26;100.00;98554.09;5021651;28;20083;-77
2023/09/20 11:06:53;;;;;;;0.00;0.00;;;;;;;15.35;100.00;98585.13;5034466;28;20071;-78
2023/09/20 11:09:31;;;;;;;0.00;0.00;;;;;;;15.36;100.00;98594.97;5044518;28;20079;-77
2023/09/20 11:12:06;;;;;;;0.00;0.00;;;;;;;15.53;100.00;98586.50;5025601;28;20029;-77
2023/09/20 11:14:35;;;;;;;0.00;0.00;;;;;;;15.44;100.00;98577.53;5052055;28;20024;-78
2023/09/20 11:17:05;;;;;;;0.00;0.00;;;;;;;15.24;100.00;98551.69;5023394;28;20036;-77
2023/09/20 11:19:35;;;;;;;0.00;0.00;;;;;;;15.21;100.00;98568.91;5017602;28;20069;-78
2023/09/20 11:22:01;;;;;;;0.00;0.00;;;;;;;15.03;100.00;98549.06;5039891;28;20037;-78
2023/09/20 11:24:29;;;;;;;0.00;0.00;;;;;;;15.00;100.00;98534.00;5027250;28;20032;-77
2023/09/20 11:27:45;;;;;;;;;;;;;;;;;;;;;
2023/09/20 11:34:17;;;;;;;;;;;;;;;;;;;;;
2023/09/20 11:37:09;;;;;;;0.00;0.00;;;;;;;14.77;100.00;98541.88;5044507;28;20054;-79
2023/09/20 11:40:04;;;;;;;0.00;0.00;;;;;;;14.78;100.00;98551.75;5040795;28;20040;-78
2023/09/20 11:42:36;;;;;;;0.00;0.00;;;;;;;14.68;100.00;98499.91;5024481;28;20025;-77
2023/09/20 11:45:11;;;;;;;0.08;0.08;;;;;;;14.74;100.00;98539.81;5027982;28;20479;-77
2023/09/20 11:51:26;;;;;;;0.00;0.00;;;;;;;14.86;100.00;98496.97;5027418;28;20120;-79
2023/09/20 11:58:00;;;;;;;0.00;0.00;;;;;;;15.14;100.00;98525.44;4865888;29;20057;-78
2023/09/20 12:01:13;;;;;;;;;;;;;;;;;;;;;
2023/09/20 12:06:51;;;;;;;0.00;0.00;;;;;;;14.87;100.00;98553.63;5029771;28;20040;-78
2023/09/20 12:10:06;;;;;;;;;;;;;;;;;;;;;
2023/09/20 12:12:34;;;;;;;0.00;0.00;;;;;;;14.87;100.00;98526.09;5037176;28;20032;-77
2023/09/20 12:15:09;;;;;;;0.00;0.00;;;;;;;14.62;100.00;98493.03;5056500;28;20485;-78
2023/09/20 12:17:48;;;;;;;0.00;0.00;;;;;;;14.64;100.00;98465.97;5033332;28;20027;-78
2023/09/20 12:20:48;;;;;;;0.00;0.00;;;;;;;14.86;100.00;98481.25;5018954;28;20412;-77
2023/09/20 12:23:52;;;;;;;;;;;;;;;;;;;;;
2023/09/20 12:26:34;;;;;;;0.00;0.00;;;;;;;15.10;100.00;98523.69;5040011;28;20083;-79
2023/09/20 12:29:49;;;;;;;0.00;0.00;;;;;;;14.78;100.00;98491.22;5027385;28;20051;-78
2023/09/20 12:32:47;;;;;;;;;;;;;;;;;;;;;
2023/09/20 12:35:13;;;;;;;0.00;0.00;;;;;;;14.97;100.00;98481.63;5040847;28;20124;-78
2023/09/20 12:37:40;;;;;;;0.00;0.00;;;;;;;15.19;100.00;98505.94;5038295;28;20104;-76
2023/09/20 12:40:29;;;;;;;0.00;0.00;;;;;;;15.11;100.00;98506.03;5045026;28;20033;-77
2023/09/20 12:43:01;;;;;;;0.00;0.00;;;;;;;15.06;100.00;98523.59;5036787;28;20029;-77
2023/09/20 12:45:26;;;;;;;0.00;0.00;;;;;;;14.98;100.00;98505.22;5037793;28;20100;-76